Time;durP1;ratioP1;P1;durP2;ratioP2;P2;SDS_P1;SDS_P2;PMS_P1;PMS_P2;Temp;Humidity;BMP_temperature;BMP_pressure;BME280_temperature;BME280_humidity;BME280_pressure;Samples;Min_cycle;Max_cycle;Signal;HPM_P1;HPM_P2
2021/12/26 00:01:11;;;;;;;7.55;2.28;;;-6.60;99.90;;;;;;12432756;28;20500;-84
2021/12/26 00:07:13;;;;;;;5.00;2.20;;;-6.70;99.90;;;;;;12402100;28;20148;-84
2021/12/26 00:13:16;;;;;;;6.35;2.00;;;-6.80;99.90;;;;;;12410392;28;20056;-85
2021/12/26 00:19:18;;;;;;;5.10;2.03;;;-6.80;99.90;;;;;;12425037;28;20463;-84
2021/12/26 00:25:20;;;;;;;4.40;2.00;;;-6.80;99.90;;;;;;12416098;28;20137;-84
2021/12/26 00:31:22;;;;;;;4.57;2.03;;;-6.90;99.90;;;;;;12412985;28;20073;-84
2021/12/26 00:37:24;;;;;;;5.32;2.05;;;-7.10;99.90;;;;;;12412233;28;20057;-85
2021/12/26 00:43:26;;;;;;;6.90;1.70;;;-7.00;99.90;;;;;;12410384;28;20498;-84
2021/12/26 00:49:28;;;;;;;5.13;1.95;;;-7.00;99.90;;;;;;12408359;28;20127;-84
2021/12/26 00:55:30;;;;;;;3.47;1.52;;;-7.00;99.90;;;;;;12413998;28;20134;-84
2021/12/26 01:01:33;;;;;;;5.07;1.88;;;-6.90;99.90;;;;;;12431211;28;20061;-84
2021/12/26 01:07:49;;;;;;;4.35;1.70;;;-6.70;99.90;;;;;;12406232;28;20068;-84
2021/12/26 01:13:52;;;;;;;5.30;2.20;;;-6.80;99.90;;;;;;12421768;28;20471;-84
2021/12/26 01:19:55;;;;;;;5.40;2.17;;;-6.80;99.90;;;;;;12398502;28;20057;-84
2021/12/26 01:25:58;;;;;;;4.88;1.80;;;-6.90;99.90;;;;;;12395819;28;20122;-85
2021/12/26 01:32:00;;;;;;;4.88;2.13;;;-7.00;99.90;;;;;;12420746;28;20549;-84
2021/12/26 01:38:03;;;;;;;5.43;2.72;;;-7.10;99.90;;;;;;12436751;28;20141;-84
2021/12/26 01:44:08;;;;;;;8.52;2.30;;;-7.20;99.90;;;;;;12407239;28;20042;-84
2021/12/26 01:50:10;;;;;;;4.32;2.28;;;-7.20;99.90;;;;;;12419825;28;20479;-84
2021/12/26 01:56:13;;;;;;;5.38;2.28;;;-7.20;99.90;;;;;;12434549;28;20164;-84
2021/12/26 02:02:15;;;;;;;5.38;2.20;;;-7.20;99.90;;;;;;12416564;28;20137;-84
2021/12/26 02:08:18;;;;;;;6.00;1.90;;;-7.30;99.90;;;;;;12407697;28;20417;-84
2021/12/26 02:14:20;;;;;;;6.18;2.00;;;-7.40;99.90;;;;;;12412622;28;20103;-84
2021/12/26 02:20:40;;;;;;;7.32;1.80;;;-7.30;99.90;;;;;;12415161;28;20490;-84
2021/12/26 02:33:04;;;;;;;4.65;1.90;;;-7.40;99.90;;;;;;12431264;28;20138;-84
2021/12/26 02:39:06;;;;;;;6.43;2.23;;;-7.30;99.90;;;;;;12415468;28;20058;-84
2021/12/26 02:45:08;;;;;;;3.95;1.52;;;-7.30;99.90;;;;;;12425232;28;20058;-84
2021/12/26 02:51:10;;;;;;;3.88;1.90;;;-7.20;99.90;;;;;;12430274;28;20042;-84
2021/12/26 02:57:12;;;;;;;3.20;1.45;;;-7.00;99.90;;;;;;12417947;28;20057;-84
2021/12/26 03:03:14;;;;;;;4.90;1.83;;;-6.90;99.90;;;;;;12432378;28;20115;-84
2021/12/26 03:09:16;;;;;;;4.00;1.73;;;-6.90;99.90;;;;;;12406934;28;20056;-84
2021/12/26 03:15:18;;;;;;;3.42;1.50;;;-6.70;99.90;;;;;;12411414;28;20054;-84
2021/12/26 03:21:20;;;;;;;3.95;1.50;;;-6.60;99.90;;;;;;12429697;28;20045;-84
2021/12/26 03:27:22;;;;;;;4.70;1.50;;;-6.60;99.90;;;;;;12394434;28;20136;-84
2021/12/26 03:33:26;;;;;;;3.90;1.90;;;-6.50;99.90;;;;;;12414958;28;20710;-84
2021/12/26 03:39:29;;;;;;;4.90;1.40;;;-6.50;99.90;;;;;;12431829;28;20107;-84
2021/12/26 03:45:31;;;;;;;3.55;1.30;;;-6.50;99.90;;;;;;12415763;28;20102;-84
2021/12/26 03:51:34;;;;;;;6.18;1.40;;;-6.60;99.90;;;;;;12428971;28;20042;-84
2021/12/26 03:57:36;;;;;;;4.00;1.30;;;-6.60;99.90;;;;;;12430711;28;20050;-84
2021/12/26 04:03:38;;;;;;;4.07;1.40;;;-6.50;99.90;;;;;;12420978;28;20497;-84
2021/12/26 04:09:40;;;;;;;2.40;1.10;;;-6.40;99.90;;;;;;12413007;28;20391;-84
2021/12/26 04:15:42;;;;;;;2.72;1.13;;;-6.40;99.90;;;;;;12415409;28;20050;-84
2021/12/26 04:21:44;;;;;;;3.08;1.17;;;-6.20;99.90;;;;;;12411495;28;20076;-84
2021/12/26 04:27:46;;;;;;;4.28;1.40;;;-6.20;99.90;;;;;;12406064;28;20479;-84
2021/12/26 04:33:49;;;;;;;3.72;1.00;;;-6.00;99.90;;;;;;12414040;28;20050;-84
2021/12/26 04:39:51;;;;;;;4.25;1.73;;;-6.00;99.90;;;;;;12421098;28;20087;-84
2021/12/26 04:45:55;;;;;;;3.35;1.52;;;-6.30;99.90;;;;;;12403549;28;20050;-84
2021/12/26 04:51:58;;;;;;;5.00;1.55;;;-6.50;99.90;;;;;;12411342;28;20054;-84
2021/12/26 04:58:00;;;;;;;4.28;1.80;;;-6.50;99.90;;;;;;12411354;28;20050;-84
2021/12/26 05:04:03;;;;;;;5.18;1.67;;;-6.40;99.90;;;;;;12424951;28;20088;-84
2021/12/26 05:10:06;;;;;;;5.18;1.58;;;-6.30;99.90;;;;;;12428192;28;20548;-84
2021/12/26 05:16:08;;;;;;;4.83;2.10;;;-6.30;99.90;;;;;;12438441;28;20541;-84
2021/12/26 05:22:10;;;;;;;3.60;1.67;;;-6.40;99.90;;;;;;12420329;28;20046;-83
2021/12/26 05:28:12;;;;;;;5.18;2.00;;;-6.40;99.90;;;;;;12406115;28;20050;-84
2021/12/26 05:34:14;;;;;;;4.50;2.08;;;-6.60;99.90;;;;;;12420605;28;20114;-83
2021/12/26 05:40:17;;;;;;;5.38;2.38;;;-6.80;99.90;;;;;;12416440;28;20509;-84
2021/12/26 05:46:18;;;;;;;6.22;2.35;;;-7.00;99.90;;;;;;12420871;28;20056;-84
2021/12/26 05:52:21;;;;;;;3.95;1.95;;;-7.00;99.90;;;;;;12428271;28;20045;-84
2021/12/26 05:58:23;;;;;;;3.92;2.15;;;-7.10;99.90;;;;;;12418416;28;20074;-84
2021/12/26 06:04:25;;;;;;;7.65;2.70;;;-7.10;99.90;;;;;;12422116;28;20693;-84
2021/12/26 06:10:26;;;;;;;5.72;2.50;;;-7.00;99.90;;;;;;12435874;28;20594;-84
2021/12/26 06:16:28;;;;;;;5.30;2.33;;;-7.00;99.90;;;;;;12441222;28;20057;-84
2021/12/26 06:22:30;;;;;;;5.15;2.03;;;-7.00;99.90;;;;;;12434227;28;20171;-84
2021/12/26 06:28:32;;;;;;;3.33;1.70;;;-7.10;99.90;;;;;;12422935;28;20062;-84
2021/12/26 06:34:34;;;;;;;4.25;1.88;;;-7.10;99.90;;;;;;12429554;28;20046;-84
2021/12/26 06:40:36;;;;;;;5.38;2.00;;;-7.10;99.90;;;;;;12432559;28;20050;-84
2021/12/26 06:46:39;;;;;;;5.25;1.88;;;-7.20;99.90;;;;;;12433460;28;20042;-84
2021/12/26 06:52:42;;;;;;;5.25;1.90;;;-7.10;99.90;;;;;;12415108;28;20042;-84
2021/12/26 06:58:43;;;;;;;4.82;2.10;;;-7.00;99.90;;;;;;12409991;28;20223;-84
2021/12/26 07:04:46;;;;;;;3.75;1.88;;;-7.00;99.90;;;;;;12409430;28;20128;-84
2021/12/26 07:10:49;;;;;;;6.40;2.42;;;-6.80;99.90;;;;;;12416444;28;20498;-84
2021/12/26 07:16:51;;;;;;;5.22;1.85;;;-6.80;99.90;;;;;;12404264;28;20141;-84
2021/12/26 07:22:53;;;;;;;5.82;2.25;;;-6.80;99.90;;;;;;12415992;28;20050;-84
2021/12/26 07:28:54;;;;;;;5.65;2.30;;;-6.70;99.90;;;;;;12401233;28;20472;-84
2021/12/26 07:35:00;;;;;;;5.55;2.42;;;-6.80;99.90;;;;;;12412942;28;20133;-84
2021/12/26 07:41:01;;;;;;;7.60;3.72;;;-6.80;99.90;;;;;;12417053;28;20045;-84
2021/12/26 07:47:05;;;;;;;5.22;2.40;;;-6.90;99.90;;;;;;12412393;28;20141;-84
2021/12/26 07:53:10;;;;;;;7.38;2.92;;;-6.80;99.90;;;;;;12433828;28;20095;-84
2021/12/26 07:59:12;;;;;;;7.80;3.50;;;-6.80;99.90;;;;;;12423535;28;20069;-84
2021/12/26 08:05:15;;;;;;;9.60;3.00;;;-6.70;99.90;;;;;;12409110;28;20081;-84
2021/12/26 08:11:17;;;;;;;7.97;2.47;;;-6.70;99.90;;;;;;12411004;28;20153;-84
2021/12/26 08:17:19;;;;;;;6.82;3.50;;;-6.60;99.90;;;;;;12414756;28;20076;-84
2021/12/26 08:23:21;;;;;;;6.18;2.72;;;-6.60;99.90;;;;;;12350291;28;20414;-84
2021/12/26 08:29:23;;;;;;;7.28;2.85;;;-6.30;99.90;;;;;;12402431;28;20077;-83
2021/12/26 08:35:26;;;;;;;6.93;2.88;;;-6.10;99.90;;;;;;12416680;28;20417;-84
2021/12/26 08:41:28;;;;;;;4.78;2.75;;;-6.10;99.90;;;;;;12433053;28;20074;-84
2021/12/26 08:47:29;;;;;;;5.78;2.95;;;-6.00;99.90;;;;;;12408516;28;20224;-84
2021/12/26 08:53:31;;;;;;;6.85;3.22;;;-5.60;99.90;;;;;;12405634;28;20068;-84
2021/12/26 08:59:34;;;;;;;6.85;3.30;;;-5.50;99.90;;;;;;12403108;28;20660;-84
2021/12/26 09:05:36;;;;;;;7.00;3.10;;;-5.40;99.90;;;;;;12410633;28;20123;-84
2021/12/26 09:11:38;;;;;;;6.95;3.33;;;-5.10;99.90;;;;;;12426070;28;20050;-84
2021/12/26 09:17:41;;;;;;;7.50;3.10;;;-5.00;99.90;;;;;;12427072;28;20636;-84
2021/12/26 09:23:47;;;;;;;9.32;3.35;;;-4.90;99.90;;;;;;12420426;28;20083;-85
2021/12/26 09:29:48;;;;;;;6.53;3.22;;;-4.50;99.90;;;;;;12418119;28;20133;-84
2021/12/26 09:35:50;;;;;;;6.88;3.45;;;-4.50;99.90;;;;;;12408224;28;20134;-85
2021/12/26 09:41:53;;;;;;;7.57;3.15;;;-4.40;99.90;;;;;;12422502;28;20137;-85
2021/12/26 09:47:55;;;;;;;6.57;3.47;;;-4.50;99.90;;;;;;12418224;28;20061;-84
2021/12/26 09:53:57;;;;;;;6.65;3.35;;;-4.50;99.90;;;;;;12415498;28;20054;-84
2021/12/26 10:00:21;;;;;;;6.32;3.42;;;-4.40;99.90;;;;;;12419008;28;20502;-85
2021/12/26 10:06:23;;;;;;;6.18;3.20;;;-4.20;99.90;;;;;;12420115;28;20130;-85
2021/12/26 10:12:25;;;;;;;8.15;3.58;;;-4.10;99.90;;;;;;12424801;28;20050;-85
2021/12/26 10:18:28;;;;;;;7.68;3.72;;;-3.90;99.90;;;;;;12415534;28;20054;-85
2021/12/26 10:24:36;;;;;;;8.75;3.30;;;-3.70;99.90;;;;;;12401490;28;20101;-85
2021/12/26 10:30:43;;;;;;;8.80;3.90;;;-3.50;99.90;;;;;;12416484;28;20157;-84
2021/12/26 10:36:47;;;;;;;10.52;4.38;;;-3.40;99.90;;;;;;12428395;28;20077;-85
2021/12/26 10:42:52;;;;;;;7.60;3.60;;;-3.20;99.90;;;;;;12414236;28;20058;-85
2021/12/26 10:48:54;;;;;;;8.50;4.05;;;-3.00;99.90;;;;;;12415044;28;21814;-85
2021/12/26 10:55:02;;;;;;;7.35;4.00;;;-2.80;99.90;;;;;;12418015;28;20044;-85
2021/12/26 11:01:04;;;;;;;9.60;4.32;;;-2.60;99.90;;;;;;12426236;28;20069;-86
2021/12/26 11:07:11;;;;;;;7.65;4.00;;;-2.20;99.90;;;;;;12411996;28;20050;-85
2021/12/26 11:13:24;;;;;;;10.20;4.45;;;-2.00;99.90;;;;;;12415983;28;20121;-85
2021/12/26 11:19:45;;;;;;;8.48;4.40;;;-1.60;99.90;;;;;;12428690;28;20834;-86
2021/12/26 11:25:54;;;;;;;8.98;4.18;;;-1.60;99.90;;;;;;12410391;28;20087;-84
2021/12/26 11:31:57;;;;;;;9.20;4.50;;;-1.50;99.90;;;;;;12403837;28;20046;-86
2021/12/26 11:38:01;;;;;;;10.18;4.20;;;-2.10;99.90;;;;;;12388504;28;20145;-85
2021/12/26 11:44:32;;;;;;;8.60;4.50;;;-2.10;99.90;;;;;;12401502;28;20092;-85
2021/12/26 11:51:11;;;;;;;12.77;3.92;;;-2.00;99.90;;;;;;12405326;28;20481;-86
2021/12/26 11:57:51;;;;;;;9.07;4.53;;;-1.90;99.90;;;;;;12415439;28;20136;-86
2021/12/26 12:04:15;;;;;;;9.55;4.65;;;-1.80;99.90;;;;;;12427492;28;20054;-85
2021/12/26 12:10:52;;;;;;;8.65;4.00;;;-1.60;99.90;;;;;;12415729;28;20050;-85
2021/12/26 12:17:13;;;;;;;8.00;3.85;;;-1.50;99.90;;;;;;12377420;28;20148;-85
2021/12/26 12:23:18;;;;;;;8.70;4.55;;;-1.50;99.90;;;;;;12411159;28;20125;-86
2021/12/26 12:29:29;;;;;;;10.88;4.25;;;-1.50;99.90;;;;;;12426933;28;20746;-86
2021/12/26 12:35:53;;;;;;;8.43;4.72;;;-1.50;99.90;;;;;;12425861;28;20512;-86
2021/12/26 12:41:55;;;;;;;10.48;5.28;;;-1.50;99.90;;;;;;12408562;28;21181;-86
2021/12/26 12:48:21;;;;;;;7.53;3.50;;;-1.50;99.90;;;;;;12425415;28;20065;-84
2021/12/26 12:54:32;;;;;;;9.90;5.03;;;-1.40;99.90;;;;;;12421181;28;20076;-86
2021/12/26 13:00:34;;;;;;;10.18;4.85;;;-1.30;99.90;;;;;;12410162;28;20081;-85
2021/12/26 13:06:36;;;;;;;9.00;4.75;;;-1.20;99.90;;;;;;12429379;28;20480;-85
2021/12/26 13:12:38;;;;;;;11.38;5.18;;;-1.10;99.90;;;;;;12420689;28;20132;-87
2021/12/26 13:18:40;;;;;;;10.73;5.57;;;-1.00;99.90;;;;;;12394412;28;20502;-87
2021/12/26 13:24:45;;;;;;;17.25;5.85;;;-1.00;99.90;;;;;;12408969;28;20133;-86
2021/12/26 13:30:54;;;;;;;11.68;6.15;;;-0.90;99.90;;;;;;12420343;28;20144;-86
2021/12/26 13:37:06;;;;;;;12.43;6.10;;;-0.80;99.90;;;;;;12425075;28;20045;-86
2021/12/26 13:43:08;;;;;;;11.18;5.80;;;-0.80;99.90;;;;;;12436961;28;20089;-85
2021/12/26 13:49:12;;;;;;;12.13;5.88;;;-0.80;99.90;;;;;;12437071;28;20046;-87
2021/12/26 13:55:14;;;;;;;9.68;5.75;;;-0.80;99.90;;;;;;12422985;28;20096;-85
2021/12/26 14:01:16;;;;;;;11.93;6.40;;;-0.80;99.90;;;;;;12418349;28;20529;-86
2021/12/26 14:07:24;;;;;;;12.38;6.15;;;-0.80;99.90;;;;;;12423062;28;20121;-85
2021/12/26 14:13:27;;;;;;;13.38;6.88;;;-0.80;99.90;;;;;;12416255;28;20099;-85
2021/12/26 14:19:29;;;;;;;10.88;6.32;;;-0.70;99.90;;;;;;12433111;28;20050;-86
2021/12/26 14:25:31;;;;;;;12.93;6.85;;;-0.70;99.90;;;;;;12418884;28;20124;-86
2021/12/26 14:31:48;;;;;;;11.70;6.60;;;-0.80;99.90;;;;;;12418074;28;20041;-85
2021/12/26 14:37:49;;;;;;;12.25;6.78;;;-0.80;99.90;;;;;;12424683;28;20169;-85
2021/12/26 14:43:52;;;;;;;11.95;6.55;;;-0.70;99.90;;;;;;12419216;28;20136;-86
2021/12/26 14:50:06;;;;;;;15.07;7.60;;;-0.80;99.90;;;;;;12420956;28;20420;-85
2021/12/26 14:56:12;;;;;;;14.18;7.88;;;-0.90;99.90;;;;;;12429273;28;20506;-86
2021/12/26 15:02:21;;;;;;;13.77;7.75;;;-0.90;99.90;;;;;;12411431;28;20053;-86
2021/12/26 15:08:23;;;;;;;15.50;8.10;;;-1.00;99.90;;;;;;12407461;28;20072;-84
2021/12/26 15:14:26;;;;;;;15.60;8.25;;;-1.10;99.90;;;;;;12426554;28;20513;-84
2021/12/26 15:20:40;;;;;;;15.10;8.18;;;-1.10;99.90;;;;;;12414779;28;20139;-84
2021/12/26 15:26:42;;;;;;;15.57;8.63;;;-1.20;99.90;;;;;;12417930;28;20088;-86
2021/12/26 15:32:46;;;;;;;18.02;8.68;;;-1.20;99.90;;;;;;12419621;28;20069;-84
2021/12/26 15:38:50;;;;;;;;;;;-1.10;99.90;;;;;;12423950;28;20085;-84
2021/12/26 15:44:51;;;;;;;12.23;6.45;;;-0.90;99.90;;;;;;12423448;28;20048;-84
2021/12/26 15:50:53;;;;;;;13.65;7.05;;;-0.80;99.90;;;;;;12432035;28;20050;-86
2021/12/26 15:56:55;;;;;;;14.15;7.18;;;-0.80;99.90;;;;;;12402326;28;20077;-86
2021/12/26 16:03:01;;;;;;;12.98;7.25;;;-0.80;99.90;;;;;;12417215;28;20045;-86
2021/12/26 16:09:07;;;;;;;13.85;7.38;;;-0.90;99.90;;;;;;12416892;28;20088;-85
2021/12/26 16:15:09;;;;;;;12.90;7.30;;;-0.90;99.90;;;;;;12430405;28;20880;-86
2021/12/26 16:21:14;;;;;;;12.27;6.97;;;-1.00;99.90;;;;;;12416883;28;20125;-86
2021/12/26 16:27:16;;;;;;;15.02;7.80;;;-1.00;99.90;;;;;;12425759;28;20663;-86
2021/12/26 16:33:18;;;;;;;16.40;7.68;;;-1.00;99.90;;;;;;12426326;28;20085;-86
2021/12/26 16:39:21;;;;;;;17.70;8.65;;;-1.10;99.90;;;;;;12412767;28;20510;-84
2021/12/26 16:45:29;;;;;;;17.80;8.60;;;-1.20;99.90;;;;;;12414334;28;20171;-85
2021/12/26 16:51:31;;;;;;;13.52;7.20;;;-1.30;99.90;;;;;;12401030;28;20166;-85
2021/12/26 16:57:33;;;;;;;15.25;7.57;;;-1.40;99.90;;;;;;12414345;28;20129;-85
2021/12/26 17:03:35;;;;;;;19.73;8.15;;;-1.50;99.90;;;;;;12405126;28;20079;-85
2021/12/26 17:09:39;;;;;;;16.13;9.52;;;-1.50;99.90;;;;;;12413014;28;20128;-84
2021/12/26 17:15:41;;;;;;;16.65;8.05;;;-1.50;99.90;;;;;;12403022;28;20115;-86
2021/12/26 17:21:43;;;;;;;17.23;9.18;;;-1.40;99.90;;;;;;12406425;28;20111;-86
2021/12/26 17:27:46;;;;;;;17.02;9.27;;;-1.50;99.90;;;;;;12423181;28;20082;-84
2021/12/26 17:33:48;;;;;;;19.20;9.93;;;-1.50;99.90;;;;;;12414289;28;20046;-85
2021/12/26 17:39:51;;;;;;;16.15;8.10;;;-1.60;99.90;;;;;;12412861;28;20133;-86
2021/12/26 17:45:53;;;;;;;17.38;9.38;;;-1.60;99.90;;;;;;12414889;28;20145;-84
2021/12/26 17:51:56;;;;;;;16.60;8.93;;;-1.60;99.90;;;;;;12426661;28;20100;-84
2021/12/26 17:57:59;;;;;;;21.20;9.95;;;-1.60;99.90;;;;;;12415015;28;20081;-86
2021/12/26 18:04:04;;;;;;;16.58;9.63;;;-1.60;99.90;;;;;;12405184;28;20080;-85
2021/12/26 18:10:08;;;;;;;20.15;9.73;;;-1.60;99.90;;;;;;12411507;28;20086;-86
2021/12/26 18:16:10;;;;;;;22.15;10.55;;;-1.50;99.90;;;;;;12404384;28;20163;-85
2021/12/26 18:22:12;;;;;;;20.83;11.13;;;-1.40;99.90;;;;;;12412787;28;20049;-86
2021/12/26 18:28:16;;;;;;;19.95;10.73;;;-1.30;99.90;;;;;;12421145;28;20085;-85
2021/12/26 18:34:17;;;;;;;18.63;9.80;;;-1.30;99.90;;;;;;12425239;28;20180;-85
2021/12/26 18:40:23;;;;;;;19.90;10.00;;;-1.30;99.90;;;;;;12425891;28;20042;-85
2021/12/26 18:46:31;;;;;;;21.30;10.50;;;-1.20;99.90;;;;;;12420577;28;20042;-86
2021/12/26 18:52:33;;;;;;;20.50;10.95;;;-1.20;99.90;;;;;;12406613;28;20037;-86
2021/12/26 18:58:35;;;;;;;20.80;10.07;;;-1.10;99.90;;;;;;12414429;28;20184;-86
2021/12/26 19:04:37;;;;;;;18.10;10.25;;;-1.10;99.90;;;;;;12410549;28;20042;-87
2021/12/26 19:10:40;;;;;;;18.33;9.93;;;-1.00;99.90;;;;;;12409203;28;20060;-86
2021/12/26 19:16:45;;;;;;;20.13;10.70;;;-1.00;99.90;;;;;;12422540;28;20574;-86
2021/12/26 19:22:49;;;;;;;17.65;9.68;;;-1.00;99.90;;;;;;12420965;28;20065;-85
2021/12/26 19:28:50;;;;;;;19.38;9.45;;;-1.10;99.90;;;;;;12429241;28;20176;-85
2021/12/26 19:34:52;;;;;;;17.85;9.30;;;-1.00;99.90;;;;;;12408252;28;20069;-86
2021/12/26 19:40:58;;;;;;;18.33;9.73;;;-1.00;99.90;;;;;;12431877;28;20406;-86
2021/12/26 19:47:01;;;;;;;19.20;9.40;;;-1.00;99.90;;;;;;12419689;28;20132;-86
2021/12/26 19:53:04;;;;;;;20.20;10.37;;;-0.80;99.90;;;;;;12422132;28;20095;-85
2021/12/26 19:59:08;;;;;;;18.10;9.07;;;-0.80;99.90;;;;;;12418970;28;20042;-86
2021/12/26 20:05:10;;;;;;;19.08;10.43;;;-0.80;99.90;;;;;;12414523;28;20077;-86
2021/12/26 20:11:32;;;;;;;18.67;9.65;;;-0.80;99.90;;;;;;12414222;28;20046;-86
2021/12/26 20:17:34;;;;;;;20.15;9.88;;;-0.80;99.90;;;;;;12418233;28;20060;-85
2021/12/26 20:23:36;;;;;;;18.40;10.38;;;-0.80;99.90;;;;;;12406890;28;20077;-85
2021/12/26 20:29:38;;;;;;;18.40;9.82;;;-0.80;99.90;;;;;;12433550;28;20849;-85
2021/12/26 20:35:42;;;;;;;18.90;10.43;;;-0.80;99.90;;;;;;12407479;28;20169;-86
2021/12/26 20:41:46;;;;;;;18.55;10.55;;;-0.80;99.90;;;;;;12418979;28;20615;-86
2021/12/26 20:47:48;;;;;;;;;;;-0.70;99.90;;;;;;12424869;28;20062;-85
2021/12/26 20:53:50;;;;;;;22.05;11.57;;;-0.70;99.90;;;;;;12413063;28;19933;-87
2021/12/26 20:59:52;;;;;;;23.15;12.20;;;-0.60;99.90;;;;;;12413147;28;20137;-85
2021/12/26 21:05:54;;;;;;;23.08;11.45;;;-0.60;99.90;;;;;;12392335;28;20142;-85
2021/12/26 21:11:59;;;;;;;23.27;11.98;;;-0.60;99.90;;;;;;12416542;28;20050;-85
2021/12/26 21:18:01;;;;;;;21.27;11.48;;;-0.60;99.90;;;;;;12430170;28;20512;-85
2021/12/26 21:24:03;;;;;;;22.80;11.88;;;-0.60;99.90;;;;;;12412933;28;20081;-85
2021/12/26 21:30:06;;;;;;;23.38;12.07;;;-0.60;99.90;;;;;;12403231;28;20138;-84
2021/12/26 21:36:08;;;;;;;26.33;12.47;;;-0.60;99.90;;;;;;12406853;28;20414;-85
2021/12/26 21:42:12;;;;;;;29.90;14.65;;;-0.60;99.90;;;;;;12409989;28;20050;-85
2021/12/26 21:48:14;;;;;;;26.17;13.65;;;-0.60;99.90;;;;;;12428913;28;20069;-86
2021/12/26 21:54:16;;;;;;;27.20;14.23;;;-0.60;99.90;;;;;;12418388;28;20080;-85
2021/12/26 22:00:20;;;;;;;28.08;13.35;;;-0.60;99.90;;;;;;12429451;28;20450;-86
2021/12/26 22:06:27;;;;;;;31.17;13.90;;;-0.60;99.90;;;;;;12412723;28;20159;-85
2021/12/26 22:12:29;;;;;;;25.65;14.60;;;-0.60;99.90;;;;;;12411152;28;20525;-86
2021/12/26 22:18:31;;;;;;;24.95;13.57;;;-0.70;99.90;;;;;;12434928;28;20057;-85
2021/12/26 22:24:33;;;;;;;26.88;14.05;;;-0.80;99.90;;;;;;12419529;28;20065;-86
2021/12/26 22:30:35;;;;;;;29.23;13.88;;;-0.90;99.90;;;;;;12419865;28;20110;-85
2021/12/26 22:36:37;;;;;;;27.63;14.10;;;-1.10;99.90;;;;;;12422799;28;20124;-85
2021/12/26 22:42:40;;;;;;;29.95;14.95;;;-1.10;99.90;;;;;;12420840;28;20038;-86
2021/12/26 22:48:42;;;;;;;31.65;15.27;;;-1.20;99.90;;;;;;12404433;28;20132;-86
2021/12/26 22:54:45;;;;;;;32.08;15.93;;;-1.10;99.90;;;;;;12420124;28;20081;-84
2021/12/26 23:00:57;;;;;;;30.13;15.80;;;-1.00;99.90;;;;;;12444357;28;20049;-85
2021/12/26 23:06:59;;;;;;;29.80;15.20;;;-1.00;99.90;;;;;;12462697;28;20115;-85
2021/12/26 23:13:01;;;;;;;28.60;14.75;;;-0.70;99.90;;;;;;12457104;28;20053;-86
2021/12/26 23:19:03;;;;;;;30.27;14.70;;;-0.60;99.90;;;;;;12435105;28;20072;-85
2021/12/26 23:25:06;;;;;;;32.10;14.77;;;-0.70;99.90;;;;;;12420313;28;20057;-86
2021/12/26 23:31:08;;;;;;;31.25;16.02;;;-0.70;99.90;;;;;;12411853;28;20133;-85
2021/12/26 23:37:10;;;;;;;30.70;15.05;;;-0.70;99.90;;;;;;12416522;28;20085;-86
2021/12/26 23:43:32;;;;;;;29.98;14.52;;;-0.70;99.90;;;;;;12412909;28;20150;-86
2021/12/26 23:49:33;;;;;;;29.05;15.43;;;-0.80;99.90;;;;;;12415993;28;20193;-86
2021/12/26 23:55:35;;;;;;;32.45;14.82;;;-0.80;99.90;;;;;;12427227;28;20551;-85
